Time;durP1;ratioP1;P1;durP2;ratioP2;P2;SDS_P1;SDS_P2;PMS_P1;PMS_P2;Temp;Humidity;BMP_temperature;BMP_pressure;BME280_temperature;BME280_humidity;BME280_pressure;Samples;Min_cycle;Max_cycle;Signal;HPM_P1;HPM_P2
2022/05/15 00:02:01;;;;;;;46.22;13.60;;;;;;;;;;5086758;28;20401;-73
2022/05/15 00:04:27;;;;;;;46.53;11.32;;;;;;;;;;5079865;28;20032;-73
2022/05/15 00:06:53;;;;;;;53.88;12.10;;;;;;;;;;5081750;28;20055;-73
2022/05/15 00:09:19;;;;;;;48.35;12.65;;;;;;;;;;5082934;28;20032;-73
2022/05/15 00:11:45;;;;;;;47.70;11.88;;;;;;;;;;5083994;28;20032;-73
2022/05/15 00:14:11;;;;;;;51.13;12.80;;;;;;;;;;5083879;28;20044;-73
2022/05/15 00:16:37;;;;;;;44.30;12.95;;;;;;;;;;5084736;28;20169;-73
2022/05/15 00:19:03;;;;;;;53.80;13.50;;;;;;;;;;5083157;28;20373;-72
2022/05/15 00:21:30;;;;;;;50.35;12.82;;;;;;;;;;5086127;28;20121;-73
2022/05/15 00:23:56;;;;;;;47.20;13.18;;;;;;;;;;5083820;28;20420;-74
2022/05/15 00:26:22;;;;;;;50.75;13.40;;;;;;;;;;5084281;28;20024;-73
2022/05/15 00:28:48;;;;;;;53.92;13.25;;;;;;;;;;5082484;28;20032;-73
2022/05/15 00:31:14;;;;;;;50.40;11.98;;;;;;;;;;5084242;28;20075;-74
2022/05/15 00:33:40;;;;;;;60.75;12.38;;;;;;;;;;5083572;28;20083;-73
2022/05/15 00:36:07;;;;;;;45.75;11.55;;;;;;;;;;5085346;28;20492;-74
2022/05/15 00:38:33;;;;;;;51.55;13.02;;;;;;;;;;5086036;28;20035;-73
2022/05/15 00:40:59;;;;;;;54.85;11.95;;;;;;;;;;5083187;28;20024;-74
2022/05/15 00:43:37;;;;;;;53.50;11.93;;;;;;;;;;5082779;28;20028;-74
2022/05/15 00:46:04;;;;;;;52.10;12.15;;;;;;;;;;5083977;28;20032;-73
2022/05/15 00:48:30;;;;;;;45.75;11.40;;;;;;;;;;5085344;28;20195;-76
2022/05/15 00:50:57;;;;;;;46.85;12.65;;;;;;;;;;5085324;28;20559;-75
2022/05/15 00:53:23;;;;;;;40.70;10.98;;;;;;;;;;5084495;28;20077;-74
2022/05/15 00:55:52;;;;;;;51.55;11.00;;;;;;;;;;5084276;28;20035;-73
2022/05/15 00:58:29;;;;;;;45.30;10.70;;;;;;;;;;5082458;28;20094;-74
2022/05/15 01:00:56;;;;;;;34.85;9.85;;;;;;;;;;5084986;28;20078;-74
2022/05/15 01:03:22;;;;;;;49.75;12.10;;;;;;;;;;5085010;28;20027;-74
2022/05/15 01:05:51;;;;;;;42.35;10.15;;;;;;;;;;5082787;28;20542;-73
2022/05/15 01:08:19;;;;;;;39.33;10.00;;;;;;;;;;5085184;28;20467;-75
2022/05/15 01:10:53;;;;;;;57.42;12.20;;;;;;;;;;5083577;28;20038;-74
2022/05/15 01:13:20;;;;;;;47.90;11.18;;;;;;;;;;5083687;28;20039;-73
2022/05/15 01:15:47;;;;;;;43.08;11.35;;;;;;;;;;5083929;28;20586;-73
2022/05/15 01:18:13;;;;;;;56.00;11.65;;;;;;;;;;5084665;28;20024;-75
2022/05/15 01:20:40;;;;;;;50.08;10.98;;;;;;;;;;5083818;28;20028;-72
2022/05/15 01:23:06;;;;;;;54.40;12.18;;;;;;;;;;5085350;28;20115;-73
2022/05/15 01:25:33;;;;;;;46.30;11.38;;;;;;;;;;5084651;28;20028;-73
2022/05/15 01:28:02;;;;;;;54.38;11.90;;;;;;;;;;5081342;28;20048;-72
2022/05/15 01:30:29;;;;;;;52.40;11.65;;;;;;;;;;5084035;28;20028;-72
2022/05/15 01:32:55;;;;;;;53.90;13.45;;;;;;;;;;5080312;28;20125;-72
2022/05/15 01:35:21;;;;;;;52.38;12.98;;;;;;;;;;5083450;28;20450;-73
2022/05/15 01:37:47;;;;;;;47.53;11.15;;;;;;;;;;5083641;28;20024;-74
2022/05/15 01:40:14;;;;;;;54.70;11.43;;;;;;;;;;5084172;28;20503;-74
2022/05/15 01:42:40;;;;;;;50.08;11.25;;;;;;;;;;5082682;28;20028;-73
2022/05/15 01:45:07;;;;;;;46.70;11.55;;;;;;;;;;5079304;28;20024;-72
2022/05/15 01:47:33;;;;;;;48.22;12.80;;;;;;;;;;5085664;28;20126;-72
2022/05/15 01:49:59;;;;;;;45.60;13.30;;;;;;;;;;5080335;28;20089;-73
2022/05/15 01:52:25;;;;;;;45.33;10.98;;;;;;;;;;5085355;28;20036;-72
2022/05/15 01:54:51;;;;;;;47.05;11.80;;;;;;;;;;5084091;28;20035;-73
2022/05/15 01:57:17;;;;;;;51.47;12.00;;;;;;;;;;5080400;28;20493;-73
2022/05/15 01:59:43;;;;;;;43.80;11.88;;;;;;;;;;5079910;28;20024;-72
2022/05/15 02:02:09;;;;;;;53.70;12.48;;;;;;;;;;5084151;28;20105;-73
2022/05/15 02:04:35;;;;;;;39.72;11.65;;;;;;;;;;5082056;28;20104;-73
2022/05/15 02:07:01;;;;;;;49.83;11.55;;;;;;;;;;5084505;28;20339;-72
2022/05/15 02:09:27;;;;;;;42.15;11.63;;;;;;;;;;5083087;28;20032;-73
2022/05/15 02:11:53;;;;;;;54.10;12.32;;;;;;;;;;5084829;28;20027;-73
2022/05/15 02:14:19;;;;;;;40.97;11.45;;;;;;;;;;5081243;28;20028;-72
2022/05/15 02:16:45;;;;;;;51.63;13.85;;;;;;;;;;5077021;28;20040;-74
2022/05/15 02:19:11;;;;;;;59.05;13.35;;;;;;;;;;5083623;28;20024;-73
2022/05/15 02:21:38;;;;;;;50.80;11.80;;;;;;;;;;5082453;28;20064;-73
2022/05/15 02:24:04;;;;;;;51.90;10.98;;;;;;;;;;5080891;28;20111;-72
2022/05/15 02:26:30;;;;;;;45.00;12.52;;;;;;;;;;5066468;28;20123;-73
2022/05/15 02:28:56;;;;;;;46.90;10.68;;;;;;;;;;5083891;28;20399;-72
2022/05/15 02:31:22;;;;;;;52.78;12.13;;;;;;;;;;5084929;28;20040;-73
2022/05/15 02:33:48;;;;;;;47.30;10.90;;;;;;;;;;5083054;28;20393;-72
2022/05/15 02:36:14;;;;;;;48.95;10.40;;;;;;;;;;5084407;28;21202;-74
2022/05/15 02:38:40;;;;;;;43.85;10.45;;;;;;;;;;5082392;28;20094;-74
2022/05/15 02:41:06;;;;;;;49.40;11.45;;;;;;;;;;5082526;28;20032;-73
2022/05/15 02:43:32;;;;;;;48.40;12.82;;;;;;;;;;5082645;28;20043;-72
2022/05/15 02:45:58;;;;;;;45.28;11.48;;;;;;;;;;5079454;28;20160;-73
2022/05/15 02:51:09;;;;;;;48.10;11.65;;;;;;;;;;5081728;28;20444;-73
2022/05/15 02:53:37;;;;;;;53.72;10.85;;;;;;;;;;5081054;28;20412;-73
2022/05/15 02:56:06;;;;;;;42.47;10.02;;;;;;;;;;5079935;28;20036;-73
2022/05/15 02:58:32;;;;;;;43.40;10.95;;;;;;;;;;5079963;28;20028;-72
2022/05/15 03:00:58;;;;;;;56.85;10.55;;;;;;;;;;5082637;28;20128;-72
2022/05/15 03:03:24;;;;;;;46.78;11.18;;;;;;;;;;5082190;28;20264;-73
2022/05/15 03:05:51;;;;;;;51.95;12.20;;;;;;;;;;5083078;28;20047;-74
2022/05/15 03:08:17;;;;;;;50.55;11.45;;;;;;;;;;5081289;28;20036;-72
2022/05/15 03:10:43;;;;;;;49.90;10.27;;;;;;;;;;5082385;28;20024;-72
2022/05/15 03:13:09;;;;;;;50.25;10.40;;;;;;;;;;5079488;28;20484;-74
2022/05/15 03:15:35;;;;;;;48.13;11.63;;;;;;;;;;5081215;28;20020;-73
2022/05/15 03:18:01;;;;;;;48.25;11.75;;;;;;;;;;5078425;28;20043;-73
2022/05/15 03:20:27;;;;;;;57.45;12.75;;;;;;;;;;5081367;28;20039;-73
2022/05/15 03:22:54;;;;;;;46.55;10.30;;;;;;;;;;5083119;28;20073;-73
2022/05/15 03:25:22;;;;;;;49.33;10.27;;;;;;;;;;5081274;28;20052;-73
2022/05/15 03:27:48;;;;;;;52.78;11.82;;;;;;;;;;5085733;28;20043;-74
2022/05/15 03:30:14;;;;;;;51.70;10.07;;;;;;;;;;5081796;28;20044;-72
2022/05/15 03:32:40;;;;;;;45.03;10.52;;;;;;;;;;5084333;28;20123;-73
2022/05/15 03:35:07;;;;;;;42.13;10.95;;;;;;;;;;5086613;28;20471;-73
2022/05/15 03:37:33;;;;;;;54.38;12.10;;;;;;;;;;5086547;28;22054;-74
2022/05/15 03:39:59;;;;;;;51.00;10.70;;;;;;;;;;5083367;28;20074;-72
2022/05/15 03:42:26;;;;;;;44.92;9.77;;;;;;;;;;5083973;28;20556;-73
2022/05/15 03:44:52;;;;;;;46.35;10.85;;;;;;;;;;5080114;28;20036;-74
2022/05/15 03:47:19;;;;;;;48.05;12.05;;;;;;;;;;5087039;28;20517;-73
2022/05/15 03:49:45;;;;;;;45.63;10.40;;;;;;;;;;5086181;28;20102;-73
2022/05/15 03:52:11;;;;;;;44.55;11.02;;;;;;;;;;5082882;28;20032;-72
2022/05/15 03:54:37;;;;;;;52.70;12.27;;;;;;;;;;5081191;28;20029;-74
2022/05/15 03:57:04;;;;;;;55.03;12.15;;;;;;;;;;5085642;28;20106;-75
2022/05/15 03:59:36;;;;;;;51.08;10.30;;;;;;;;;;5085228;28;20036;-75
2022/05/15 04:02:03;;;;;;;38.72;10.35;;;;;;;;;;5085525;28;20031;-74
2022/05/15 04:04:30;;;;;;;46.10;10.88;;;;;;;;;;5082077;28;20477;-75
2022/05/15 04:06:56;;;;;;;65.30;11.40;;;;;;;;;;5083634;28;20062;-74
2022/05/15 04:09:22;;;;;;;45.88;10.30;;;;;;;;;;5085182;28;20032;-73
2022/05/15 04:11:48;;;;;;;44.72;10.43;;;;;;;;;;5082596;28;20055;-75
2022/05/15 04:14:15;;;;;;;45.90;11.15;;;;;;;;;;5084981;28;20036;-73
2022/05/15 04:16:41;;;;;;;54.97;10.68;;;;;;;;;;5083651;28;20028;-72
2022/05/15 04:19:08;;;;;;;43.85;10.70;;;;;;;;;;5083524;28;20024;-73
2022/05/15 04:21:37;;;;;;;45.85;10.68;;;;;;;;;;5087692;28;20043;-73
2022/05/15 04:24:17;;;;;;;52.40;10.07;;;;;;;;;;5082966;28;20133;-72
2022/05/15 04:26:43;;;;;;;45.65;9.38;;;;;;;;;;5086651;28;20054;-72
2022/05/15 04:29:10;;;;;;;47.38;10.45;;;;;;;;;;5086632;28;20031;-74
2022/05/15 04:31:36;;;;;;;36.92;8.68;;;;;;;;;;5083460;28;20393;-74
2022/05/15 04:34:03;;;;;;;38.80;9.38;;;;;;;;;;5082768;28;20028;-72
2022/05/15 04:36:29;;;;;;;42.28;10.35;;;;;;;;;;5079517;28;20500;-73
2022/05/15 04:38:55;;;;;;;34.83;8.30;;;;;;;;;;5064897;28;20032;-73
2022/05/15 04:41:21;;;;;;;32.15;7.13;;;;;;;;;;5084008;28;20393;-73
2022/05/15 04:43:48;;;;;;;39.22;8.88;;;;;;;;;;5078269;28;20088;-73
2022/05/15 04:46:14;;;;;;;41.75;8.23;;;;;;;;;;5085209;28;20032;-72
2022/05/15 04:48:41;;;;;;;30.52;7.40;;;;;;;;;;5085107;28;20039;-73
2022/05/15 04:51:07;;;;;;;34.53;8.25;;;;;;;;;;5080727;28;20105;-73
2022/05/15 04:53:33;;;;;;;35.33;8.30;;;;;;;;;;5082311;28;20024;-74
2022/05/15 04:56:00;;;;;;;34.75;8.00;;;;;;;;;;5085727;28;20058;-73
2022/05/15 04:58:27;;;;;;;37.13;8.95;;;;;;;;;;5080580;28;20036;-73
2022/05/15 05:00:53;;;;;;;29.90;6.90;;;;;;;;;;5084394;28;20032;-74
2022/05/15 05:03:19;;;;;;;26.15;6.88;;;;;;;;;;5083886;28;20064;-72
2022/05/15 05:05:46;;;;;;;31.38;8.35;;;;;;;;;;5082803;28;20048;-74
2022/05/15 05:08:12;;;;;;;34.25;6.90;;;;;;;;;;5082051;28;20055;-73
2022/05/15 05:10:39;;;;;;;28.17;7.22;;;;;;;;;;5083519;28;20032;-72
2022/05/15 05:13:05;;;;;;;30.40;7.57;;;;;;;;;;5083295;28;20032;-73
2022/05/15 05:15:31;;;;;;;27.42;7.75;;;;;;;;;;5078654;28;20107;-73
2022/05/15 05:17:58;;;;;;;35.53;7.82;;;;;;;;;;5084766;28;20032;-72
2022/05/15 05:20:24;;;;;;;30.73;7.68;;;;;;;;;;5079876;28;20496;-74
2022/05/15 05:22:50;;;;;;;32.75;7.18;;;;;;;;;;5083353;28;20036;-74
2022/05/15 05:25:17;;;;;;;34.80;7.22;;;;;;;;;;5080813;28;20446;-76
2022/05/15 05:27:43;;;;;;;24.10;6.93;;;;;;;;;;5083625;28;20035;-74
2022/05/15 05:30:11;;;;;;;24.90;7.43;;;;;;;;;;5098074;28;20132;-76
2022/05/15 05:32:37;;;;;;;30.73;7.43;;;;;;;;;;5081350;28;20035;-75
2022/05/15 05:35:04;;;;;;;31.25;7.15;;;;;;;;;;5083778;28;20111;-75
2022/05/15 05:37:30;;;;;;;31.23;7.22;;;;;;;;;;5085253;28;20056;-74
2022/05/15 05:39:56;;;;;;;30.48;7.97;;;;;;;;;;5081003;28;20056;-72
2022/05/15 05:42:22;;;;;;;27.13;7.95;;;;;;;;;;5085938;28;20111;-73
2022/05/15 05:44:48;;;;;;;33.00;7.20;;;;;;;;;;5082133;28;20051;-74
2022/05/15 05:47:22;;;;;;;25.50;7.32;;;;;;;;;;5085027;28;20152;-72
2022/05/15 05:49:48;;;;;;;33.38;8.52;;;;;;;;;;5081635;28;20059;-72
2022/05/15 05:52:15;;;;;;;29.38;7.63;;;;;;;;;;5081503;28;20029;-73
2022/05/15 05:54:41;;;;;;;31.30;7.22;;;;;;;;;;5081643;28;20654;-72
2022/05/15 05:57:07;;;;;;;29.30;7.55;;;;;;;;;;5080814;28;20107;-76
2022/05/15 05:59:33;;;;;;;32.85;6.90;;;;;;;;;;5083071;28;20016;-77
2022/05/15 06:01:59;;;;;;;30.95;6.97;;;;;;;;;;5083895;28;20062;-76
2022/05/15 06:04:42;;;;;;;31.80;8.13;;;;;;;;;;5082384;28;20032;-75
2022/05/15 06:07:16;;;;;;;26.02;7.70;;;;;;;;;;5079465;28;20497;-74
2022/05/15 06:09:43;;;;;;;27.67;5.88;;;;;;;;;;5080072;28;20076;-73
2022/05/15 06:12:10;;;;;;;29.92;7.30;;;;;;;;;;5077242;28;20028;-74
2022/05/15 06:14:37;;;;;;;27.90;7.80;;;;;;;;;;5080886;28;20402;-74
2022/05/15 06:17:03;;;;;;;24.02;6.28;;;;;;;;;;5084661;28;20047;-74
2022/05/15 06:19:30;;;;;;;26.95;7.05;;;;;;;;;;5084975;28;20035;-76
2022/05/15 06:21:56;;;;;;;23.17;6.88;;;;;;;;;;5086276;28;20097;-74
2022/05/15 06:24:22;;;;;;;29.95;7.28;;;;;;;;;;5083856;28;20127;-77
2022/05/15 06:26:48;;;;;;;28.48;6.60;;;;;;;;;;5087735;28;20055;-74
2022/05/15 06:29:14;;;;;;;25.73;6.85;;;;;;;;;;5087496;28;20043;-74
2022/05/15 06:31:40;;;;;;;24.08;7.07;;;;;;;;;;5086421;28;20031;-74
2022/05/15 06:34:06;;;;;;;35.92;6.70;;;;;;;;;;5083796;28;20470;-75
2022/05/15 06:36:32;;;;;;;28.67;7.63;;;;;;;;;;5064892;28;20063;-78
2022/05/15 06:38:58;;;;;;;26.73;7.75;;;;;;;;;;5083661;28;20032;-77
2022/05/15 06:41:25;;;;;;;24.75;7.10;;;;;;;;;;5080186;28;20059;-77
2022/05/15 06:43:52;;;;;;;27.48;7.35;;;;;;;;;;5082022;28;20358;-76
2022/05/15 06:46:18;;;;;;;29.73;7.32;;;;;;;;;;5081935;28;20043;-74
2022/05/15 06:48:44;;;;;;;31.75;7.15;;;;;;;;;;5082124;28;20024;-80
2022/05/15 06:51:14;;;;;;;24.20;7.00;;;;;;;;;;5080265;28;20055;-77
2022/05/15 06:53:41;;;;;;;23.83;6.93;;;;;;;;;;5083484;28;20032;-74
2022/05/15 06:58:52;;;;;;;33.30;7.35;;;;;;;;;;5081547;28;20122;-73
2022/05/15 07:01:18;;;;;;;23.10;6.20;;;;;;;;;;5086231;28;20115;-73
2022/05/15 07:03:44;;;;;;;24.65;7.15;;;;;;;;;;5086829;28;20042;-74
2022/05/15 07:06:10;;;;;;;24.70;6.63;;;;;;;;;;5086716;28;20056;-74
2022/05/15 07:08:37;;;;;;;26.15;7.45;;;;;;;;;;5081099;28;20081;-74
2022/05/15 07:11:03;;;;;;;24.05;7.03;;;;;;;;;;5086814;28;20032;-75
2022/05/15 07:13:29;;;;;;;25.10;7.18;;;;;;;;;;5085466;28;20027;-73
2022/05/15 07:15:56;;;;;;;24.58;7.55;;;;;;;;;;5083375;28;20035;-74
2022/05/15 07:18:23;;;;;;;24.10;7.20;;;;;;;;;;5086677;28;20028;-77
2022/05/15 07:20:50;;;;;;;19.63;6.65;;;;;;;;;;5085613;28;20020;-73
2022/05/15 07:23:17;;;;;;;25.52;6.38;;;;;;;;;;5085059;28;20028;-72
2022/05/15 07:25:43;;;;;;;24.63;6.38;;;;;;;;;;5085946;28;20024;-76
2022/05/15 07:28:10;;;;;;;23.40;6.78;;;;;;;;;;5084507;28;20115;-75
2022/05/15 07:30:36;;;;;;;28.00;7.03;;;;;;;;;;5080769;28;20052;-74
2022/05/15 07:33:02;;;;;;;24.88;7.68;;;;;;;;;;5086120;28;20458;-77
2022/05/15 07:35:29;;;;;;;22.17;7.60;;;;;;;;;;5083960;28;20116;-75
2022/05/15 07:37:55;;;;;;;18.48;6.20;;;;;;;;;;5085835;28;20032;-75
2022/05/15 07:40:21;;;;;;;24.40;7.07;;;;;;;;;;5082281;28;20032;-76
2022/05/15 07:42:47;;;;;;;27.02;7.75;;;;;;;;;;5088423;28;20125;-79
2022/05/15 07:45:14;;;;;;;26.00;7.07;;;;;;;;;;5084407;28;20032;-74
2022/05/15 07:47:41;;;;;;;24.35;6.53;;;;;;;;;;5082089;28;20036;-73
2022/05/15 07:50:07;;;;;;;25.50;6.97;;;;;;;;;;5086646;28;20032;-76
2022/05/15 07:52:33;;;;;;;26.02;6.90;;;;;;;;;;5082484;28;20460;-76
2022/05/15 07:55:00;;;;;;;22.08;7.10;;;;;;;;;;5086852;28;20024;-76
2022/05/15 07:57:26;;;;;;;26.65;7.15;;;;;;;;;;5087165;28;20046;-77
2022/05/15 07:59:52;;;;;;;29.73;6.63;;;;;;;;;;5087833;28;20031;-80
2022/05/15 08:02:19;;;;;;;24.95;7.32;;;;;;;;;;5088462;28;20089;-73
2022/05/15 08:10:14;;;;;;;24.90;7.50;;;;;;;;;;5089040;28;20043;-77
2022/05/15 08:12:40;;;;;;;22.70;6.93;;;;;;;;;;5087474;28;20056;-75
2022/05/15 08:15:07;;;;;;;22.10;6.57;;;;;;;;;;5069976;28;20129;-76
2022/05/15 08:17:34;;;;;;;24.67;7.65;;;;;;;;;;5087166;28;20099;-73
2022/05/15 08:25:44;;;;;;;23.25;6.70;;;;;;;;;;5048221;28;20044;-73
2022/05/15 08:28:10;;;;;;;24.20;6.78;;;;;;;;;;5087649;28;20034;-77
2022/05/15 08:30:38;;;;;;;24.40;7.22;;;;;;;;;;5082009;28;20016;-73
2022/05/15 08:33:04;;;;;;;23.38;6.47;;;;;;;;;;5085947;28;20031;-76
2022/05/15 08:35:31;;;;;;;27.92;6.80;;;;;;;;;;5090235;28;20051;-75
2022/05/15 08:37:57;;;;;;;23.17;6.63;;;;;;;;;;5083967;28;20032;-77
2022/05/15 08:40:30;;;;;;;22.20;6.45;;;;;;;;;;5085780;28;20032;-79
2022/05/15 08:42:58;;;;;;;25.25;7.03;;;;;;;;;;5088569;28;20077;-74
2022/05/15 08:45:26;;;;;;;21.15;6.53;;;;;;;;;;5089579;28;20019;-75
2022/05/15 08:48:12;;;;;;;18.58;5.90;;;;;;;;;;5086372;28;20047;-78
2022/05/15 08:50:45;;;;;;;18.90;6.78;;;;;;;;;;5085372;28;20061;-76
2022/05/15 08:53:19;;;;;;;21.65;6.30;;;;;;;;;;5083526;28;20024;-76
2022/05/15 08:55:48;;;;;;;17.40;6.03;;;;;;;;;;5087889;28;20032;-75
2022/05/15 08:58:35;;;;;;;19.73;6.18;;;;;;;;;;5086362;28;20020;-80
2022/05/15 09:01:01;;;;;;;23.55;7.35;;;;;;;;;;5084918;28;20470;-78
2022/05/15 09:03:35;;;;;;;24.65;6.65;;;;;;;;;;5091225;28;20085;-77
2022/05/15 09:06:04;;;;;;;21.38;6.45;;;;;;;;;;5086179;28;20549;-80
2022/05/15 09:08:30;;;;;;;18.98;6.60;;;;;;;;;;5084808;28;20107;-75
2022/05/15 09:11:04;;;;;;;24.83;6.28;;;;;;;;;;5086108;28;20043;-78
2022/05/15 09:13:41;;;;;;;22.60;6.07;;;;;;;;;;5084007;28;20177;-73
2022/05/15 09:16:13;;;;;;;21.02;6.25;;;;;;;;;;5084846;28;20414;-79
2022/05/15 09:18:40;;;;;;;18.85;5.57;;;;;;;;;;5084219;28;20191;-74
2022/05/15 09:21:11;;;;;;;14.77;5.05;;;;;;;;;;5086338;28;20036;-74
2022/05/15 09:23:41;;;;;;;21.88;5.82;;;;;;;;;;5082146;28;20024;-75
2022/05/15 09:26:13;;;;;;;23.25;7.20;;;;;;;;;;5083800;28;20424;-77
2022/05/15 09:28:44;;;;;;;19.55;6.78;;;;;;;;;;5083720;28;20126;-73
2022/05/15 09:31:20;;;;;;;20.90;6.90;;;;;;;;;;5084917;28;20481;-76
2022/05/15 09:34:06;;;;;;;19.20;6.22;;;;;;;;;;5077145;28;20028;-72
2022/05/15 09:36:35;;;;;;;18.10;6.18;;;;;;;;;;5082555;28;20111;-76
2022/05/15 09:39:08;;;;;;;21.27;6.32;;;;;;;;;;5081831;28;20038;-76
2022/05/15 09:44:33;;;;;;;24.85;6.55;;;;;;;;;;5083287;28;20067;-75
2022/05/15 09:46:59;;;;;;;;;;;;;;;;;;5082093;28;20096;-77
2022/05/15 09:49:26;;;;;;;17.42;5.78;;;;;;;;;;5085749;28;20369;-74
2022/05/15 09:51:53;;;;;;;16.98;5.03;;;;;;;;;;5082615;28;20035;-79
2022/05/15 09:54:43;;;;;;;15.18;5.18;;;;;;;;;;5083144;28;20028;-73
2022/05/15 09:57:20;;;;;;;18.17;6.05;;;;;;;;;;5084680;28;20028;-72
2022/05/15 09:59:52;;;;;;;17.25;5.53;;;;;;;;;;5081766;28;20020;-75
2022/05/15 10:02:23;;;;;;;14.65;4.57;;;;;;;;;;5085867;28;20067;-74
2022/05/15 10:04:49;;;;;;;;;;;;;;;;;;5085649;28;20530;-77
2022/05/15 10:07:28;;;;;;;18.55;4.82;;;;;;;;;;5081657;28;19912;-77
2022/05/15 10:09:54;;;;;;;18.02;5.43;;;;;;;;;;5082639;28;20032;-78
2022/05/15 10:12:42;;;;;;;16.60;4.95;;;;;;;;;;5074771;28;20054;-78
2022/05/15 10:15:09;;;;;;;23.77;5.55;;;;;;;;;;5081948;28;20032;-76
2022/05/15 10:17:38;;;;;;;16.55;4.35;;;;;;;;;;5084575;28;20035;-75
2022/05/15 10:20:08;;;;;;;13.63;3.25;;;;;;;;;;5082813;28;20020;-75
2022/05/15 10:22:40;;;;;;;14.48;3.60;;;;;;;;;;5085150;28;20043;-75
2022/05/15 10:25:12;;;;;;;18.15;4.38;;;;;;;;;;5078164;28;20024;-79
2022/05/15 10:27:40;;;;;;;16.42;4.70;;;;;;;;;;5079592;28;20029;-74
2022/05/15 10:30:16;;;;;;;14.25;5.10;;;;;;;;;;5082632;28;20289;-73
2022/05/15 10:32:47;;;;;;;12.18;4.10;;;;;;;;;;5084145;28;20089;-75
2022/05/15 10:35:15;;;;;;;13.80;4.70;;;;;;;;;;5083782;28;20501;-75
2022/05/15 10:37:51;;;;;;;15.55;4.32;;;;;;;;;;5081069;28;20035;-77
2022/05/15 10:40:20;;;;;;;17.35;4.00;;;;;;;;;;5079474;28;20567;-77
2022/05/15 10:42:58;;;;;;;18.20;4.17;;;;;;;;;;5084326;28;20024;-77
2022/05/15 10:45:25;;;;;;;15.95;4.40;;;;;;;;;;5080796;28;20740;-76
2022/05/15 10:47:56;;;;;;;19.35;4.88;;;;;;;;;;5081930;28;20019;-75
2022/05/15 10:50:42;;;;;;;17.70;4.05;;;;;;;;;;5081552;28;20063;-76
2022/05/15 10:59:07;;;;;;;14.45;4.40;;;;;;;;;;5083646;28;20398;-75
2022/05/15 11:01:41;;;;;;;16.80;4.43;;;;;;;;;;5083303;28;20028;-77
2022/05/15 11:04:07;;;;;;;14.18;4.10;;;;;;;;;;5079257;28;20036;-75
2022/05/15 11:06:42;;;;;;;12.68;4.10;;;;;;;;;;5081322;28;20262;-76
2022/05/15 11:09:17;;;;;;;12.10;4.40;;;;;;;;;;5081030;28;20028;-77
2022/05/15 11:12:05;;;;;;;15.82;5.00;;;;;;;;;;5077450;28;20058;-76
2022/05/15 11:15:01;;;;;;;13.93;4.15;;;;;;;;;;5084444;28;20020;-78
2022/05/15 11:17:50;;;;;;;17.45;4.40;;;;;;;;;;5067026;28;20048;-75
2022/05/15 11:20:23;;;;;;;15.85;3.88;;;;;;;;;;5074212;28;20135;-76
2022/05/15 11:22:56;;;;;;;13.77;4.50;;;;;;;;;;5082855;28;20028;-76
2022/05/15 11:25:28;;;;;;;12.13;3.75;;;;;;;;;;5081905;28;20481;-77
2022/05/15 11:27:55;;;;;;;17.90;4.10;;;;;;;;;;5084080;28;20086;-75
2022/05/15 11:30:21;;;;;;;16.33;3.95;;;;;;;;;;5081810;28;20052;-77
2022/05/15 11:32:47;;;;;;;15.80;4.13;;;;;;;;;;5082849;28;20028;-78
2022/05/15 11:35:22;;;;;;;18.38;4.30;;;;;;;;;;5081630;28;20462;-79
2022/05/15 11:37:51;;;;;;;13.35;3.85;;;;;;;;;;5082070;28;20028;-78
2022/05/15 11:40:36;;;;;;;12.57;3.17;;;;;;;;;;5082158;28;20032;-76
2022/05/15 11:43:21;;;;;;;12.00;2.92;;;;;;;;;;5082209;28;20036;-78
2022/05/15 11:45:51;;;;;;;12.35;3.78;;;;;;;;;;5081517;28;20124;-76
2022/05/15 11:48:17;;;;;;;;;;;;;;;;;;5084902;28;20114;-76
2022/05/15 11:50:55;;;;;;;21.73;3.67;;;;;;;;;;5081787;28;20488;-77
2022/05/15 11:53:27;;;;;;;13.57;3.53;;;;;;;;;;5086553;28;20040;-76
2022/05/15 11:55:53;;;;;;;13.63;3.55;;;;;;;;;;5087690;28;20174;-77
2022/05/15 11:58:19;;;;;;;10.50;3.55;;;;;;;;;;5071459;28;20374;-77
2022/05/15 12:00:58;;;;;;;15.10;3.17;;;;;;;;;;5087592;28;20020;-79
2022/05/15 12:03:39;;;;;;;8.68;2.92;;;;;;;;;;5086630;28;20035;-77
2022/05/15 12:06:13;;;;;;;10.70;2.83;;;;;;;;;;5086237;28;20070;-77
2022/05/15 12:08:40;;;;;;;12.95;3.83;;;;;;;;;;5082133;28;20062;-75
2022/05/15 12:11:18;;;;;;;17.45;3.38;;;;;;;;;;5084050;28;20042;-77
2022/05/15 12:13:45;;;;;;;16.98;3.53;;;;;;;;;;5088572;28;20073;-78
2022/05/15 12:16:17;;;;;;;11.50;2.97;;;;;;;;;;5086443;28;20046;-77
2022/05/15 12:18:46;;;;;;;19.80;4.20;;;;;;;;;;5083904;28;20117;-76
2022/05/15 12:21:15;;;;;;;17.88;3.03;;;;;;;;;;5085661;28;20069;-75
2022/05/15 12:24:27;;;;;;;11.45;3.35;;;;;;;;;;5085811;28;20040;-77
2022/05/15 12:26:54;;;;;;;10.25;2.80;;;;;;;;;;5081789;28;20024;-76
2022/05/15 12:29:43;;;;;;;11.45;3.13;;;;;;;;;;5057731;28;20566;-77
2022/05/15 12:32:12;;;;;;;8.48;2.38;;;;;;;;;;5059197;28;20073;-75
2022/05/15 12:34:45;;;;;;;22.33;4.68;;;;;;;;;;5086925;28;20024;-77
2022/05/15 12:37:13;;;;;;;12.20;3.08;;;;;;;;;;5087208;28;20024;-76
2022/05/15 12:39:43;;;;;;;11.25;3.13;;;;;;;;;;5082422;28;20032;-79
2022/05/15 12:42:13;;;;;;;14.20;2.90;;;;;;;;;;5085085;28;20065;-78
2022/05/15 12:44:39;;;;;;;11.23;2.73;;;;;;;;;;5084250;28;20023;-76
2022/05/15 12:47:06;;;;;;;17.05;2.90;;;;;;;;;;5081864;28;20073;-81
2022/05/15 12:49:39;;;;;;;10.52;3.10;;;;;;;;;;5080915;28;20396;-77
2022/05/15 12:52:11;;;;;;;11.60;2.97;;;;;;;;;;5084536;28;20055;-80
2022/05/15 12:54:37;;;;;;;12.68;2.47;;;;;;;;;;5083018;28;20036;-75
2022/05/15 12:57:05;;;;;;;13.55;3.03;;;;;;;;;;5078827;28;20023;-79
2022/05/15 12:59:35;;;;;;;12.57;2.88;;;;;;;;;;5086547;28;20024;-78
2022/05/15 13:02:21;;;;;;;11.43;2.70;;;;;;;;;;5081939;28;20046;-78
2022/05/15 13:04:49;;;;;;;7.90;2.40;;;;;;;;;;5081413;28;20044;-77
2022/05/15 13:07:16;;;;;;;12.15;2.47;;;;;;;;;;5082793;28;20130;-77
2022/05/15 13:09:43;;;;;;;9.18;2.67;;;;;;;;;;5082601;28;20127;-76
2022/05/15 13:12:14;;;;;;;7.15;2.20;;;;;;;;;;5084135;28;20028;-78
2022/05/15 13:14:40;;;;;;;;;;;;;;;;;;5081364;28;20024;-77
2022/05/15 13:17:06;;;;;;;12.00;2.60;;;;;;;;;;5082470;28;19957;-76
2022/05/15 13:20:01;;;;;;;8.38;2.20;;;;;;;;;;5082626;28;20025;-75
2022/05/15 13:22:31;;;;;;;10.02;2.90;;;;;;;;;;5066820;28;20047;-77
2022/05/15 13:24:59;;;;;;;7.00;2.22;;;;;;;;;;5081753;28;20552;-77
2022/05/15 13:27:26;;;;;;;7.60;2.53;;;;;;;;;;5080717;28;20643;-77
2022/05/15 13:29:52;;;;;;;14.68;2.45;;;;;;;;;;5081141;28;20023;-76
2022/05/15 13:32:19;;;;;;;7.43;2.70;;;;;;;;;;5084111;28;20040;-75
2022/05/15 13:34:47;;;;;;;9.60;2.72;;;;;;;;;;5084524;28;20035;-73
2022/05/15 13:37:33;;;;;;;13.85;2.92;;;;;;;;;;5069100;28;20075;-76
2022/05/15 13:45:30;;;;;;;12.77;2.97;;;;;;;;;;5083189;28;20258;-77
2022/05/15 13:48:00;;;;;;;9.43;2.88;;;;;;;;;;5085163;28;20559;-74
2022/05/15 13:50:40;;;;;;;14.80;3.25;;;;;;;;;;5081781;28;20123;-77
2022/05/15 13:53:41;;;;;;;13.95;3.35;;;;;;;;;;5082978;28;20127;-74
2022/05/15 13:56:07;;;;;;;;;;;;;;;;;;5071474;28;20029;-76
2022/05/15 13:58:51;;;;;;;13.63;3.17;;;;;;;;;;5079065;28;19981;-77
2022/05/15 14:01:20;;;;;;;9.52;2.63;;;;;;;;;;5080575;28;20044;-76
2022/05/15 14:03:47;;;;;;;12.45;2.95;;;;;;;;;;5083730;28;20107;-76
2022/05/15 14:06:15;;;;;;;13.98;2.97;;;;;;;;;;5085237;28;20044;-76
2022/05/15 14:09:00;;;;;;;13.23;2.95;;;;;;;;;;5078435;28;20058;-78
2022/05/15 14:11:27;;;;;;;10.55;3.40;;;;;;;;;;5083759;28;20282;-76
2022/05/15 14:13:53;;;;;;;7.65;2.40;;;;;;;;;;5085720;28;20201;-75
2022/05/15 14:16:22;;;;;;;8.15;3.10;;;;;;;;;;5082601;28;20140;-73
2022/05/15 14:18:48;;;;;;;8.90;2.15;;;;;;;;;;5078585;28;20032;-78
2022/05/15 14:21:14;;;;;;;12.80;2.75;;;;;;;;;;5077714;28;20020;-76
2022/05/15 14:23:41;;;;;;;11.93;2.97;;;;;;;;;;5084244;28;20031;-75
2022/05/15 14:26:07;;;;;;;8.15;2.40;;;;;;;;;;5080325;28;20073;-75
2022/05/15 14:28:34;;;;;;;7.60;2.30;;;;;;;;;;5083772;28;20111;-76
2022/05/15 14:31:00;;;;;;;17.58;3.35;;;;;;;;;;5082625;28;20040;-77
2022/05/15 14:33:26;;;;;;;11.27;2.67;;;;;;;;;;5083576;28;20101;-76
2022/05/15 14:35:58;;;;;;;9.23;2.85;;;;;;;;;;5083905;28;20028;-75
2022/05/15 14:38:24;;;;;;;9.63;2.65;;;;;;;;;;5079953;28;20111;-75
2022/05/15 14:40:50;;;;;;;17.45;3.03;;;;;;;;;;5084366;28;20362;-76
2022/05/15 14:43:16;;;;;;;15.50;3.28;;;;;;;;;;5081037;28;20028;-76
2022/05/15 14:45:48;;;;;;;7.68;2.72;;;;;;;;;;5082123;28;20032;-76
2022/05/15 14:48:17;;;;;;;13.60;3.15;;;;;;;;;;5082886;28;20164;-76
2022/05/15 14:50:44;;;;;;;12.60;3.22;;;;;;;;;;5079521;28;20028;-75
2022/05/15 14:53:11;;;;;;;13.48;2.88;;;;;;;;;;5084845;28;20477;-77
2022/05/15 14:58:22;;;;;;;10.82;3.25;;;;;;;;;;5085990;28;20169;-80
2022/05/15 15:00:48;;;;;;;10.05;2.90;;;;;;;;;;5085189;28;20472;-80
2022/05/15 15:03:14;;;;;;;9.50;2.72;;;;;;;;;;5085809;28;20009;-78
2022/05/15 15:05:44;;;;;;;12.23;3.08;;;;;;;;;;5082411;28;20420;-78
2022/05/15 15:08:26;;;;;;;11.05;2.97;;;;;;;;;;5079650;28;20044;-76
2022/05/15 15:11:07;;;;;;;13.30;3.13;;;;;;;;;;5087996;28;20047;-76
2022/05/15 15:13:34;;;;;;;7.68;2.72;;;;;;;;;;5086246;28;20115;-75